Archival Weather

Sydney Intl

Sydney, Australia (YSSY)

Report from: Sunday, March 19, 2023 6:30 PM AEDT
Current time: Friday, April 19, 2024 6:53 PM AEST

Current weather – Weather history – Daily summaries
Weather forecast

Temperature25.0°C (77.0°F)
Dew point21.0°C (69.8°F)
Winds 12 kts (6.2 m/s, 13.8 mph) South-Southeast (160°)
Visibility6.2 mi. (10 km)
Clouds Sky clear
Altimeter29.97 in.Hg (1015 mB)
Relative humidity79 %
Density altitude1,435 ft. (437 m)
Remarks Fully automated report
No clouds detected
Flight conditions Visual Meteorological Conditions
Raw dataYSSY 190730Z AUTO 16012KT 9999 // NCD 25/21 Q1015 RF00.0/000.0
An error has occurred. This application may no longer respond until reloaded. Reload 🗙